sensor_id;sensor_type;location;lat;lon;timestamp;temperature;humidity
41816;DHT22;27814;53.452;-6.180;2022-12-07T00:02:06;7.20;99.90
41816;DHT22;27814;53.452;-6.180;2022-12-07T00:04:34;7.30;99.90
41816;DHT22;27814;53.452;-6.180;2022-12-07T00:07:05;7.30;99.90
41816;DHT22;27814;53.452;-6.180;2022-12-07T00:09:33;7.30;99.90
41816;DHT22;27814;53.452;-6.180;2022-12-07T00:12:01;7.30;99.90
41816;DHT22;27814;53.452;-6.180;2022-12-07T00:14:30;7.30;99.90
41816;DHT22;27814;53.452;-6.180;2022-12-07T00:16:59;7.30;99.90
41816;DHT22;27814;53.452;-6.180;2022-12-07T00:19:28;7.30;99.90
41816;DHT22;27814;53.452;-6.180;2022-12-07T00:21:56;7.20;99.90
41816;DHT22;27814;53.452;-6.180;2022-12-07T00:24:33;7.20;99.90
41816;DHT22;27814;53.452;-6.180;2022-12-07T00:27:02;7.10;99.90
41816;DHT22;27814;53.452;-6.180;2022-12-07T00:29:30;7.10;99.90
41816;DHT22;27814;53.452;-6.180;2022-12-07T00:31:58;7.00;99.90
41816;DHT22;27814;53.452;-6.180;2022-12-07T00:34:27;7.00;99.90
41816;DHT22;27814;53.452;-6.180;2022-12-07T00:36:59;7.00;99.90
41816;DHT22;27814;53.452;-6.180;2022-12-07T00:39:29;7.00;99.90
41816;DHT22;27814;53.452;-6.180;2022-12-07T00:41:59;7.00;99.90
41816;DHT22;27814;53.452;-6.180;2022-12-07T00:44:30;7.10;99.90
41816;DHT22;27814;53.452;-6.180;2022-12-07T00:46:59;7.00;99.90
41816;DHT22;27814;53.452;-6.180;2022-12-07T00:49:31;7.10;99.90
41816;DHT22;27814;53.452;-6.180;2022-12-07T00:51:59;7.00;99.90
41816;DHT22;27814;53.452;-6.180;2022-12-07T00:54:29;7.00;99.90
41816;DHT22;27814;53.452;-6.180;2022-12-07T00:56:57;6.90;99.90
41816;DHT22;27814;53.452;-6.180;2022-12-07T00:59:26;6.90;99.90
41816;DHT22;27814;53.452;-6.180;2022-12-07T01:01:54;6.90;99.90
41816;DHT22;27814;53.452;-6.180;2022-12-07T01:04:23;6.90;99.90
41816;DHT22;27814;53.452;-6.180;2022-12-07T01:06:53;6.90;99.90
41816;DHT22;27814;53.452;-6.180;2022-12-07T01:09:21;6.90;99.90
41816;DHT22;27814;53.452;-6.180;2022-12-07T01:11:52;6.80;99.90
41816;DHT22;27814;53.452;-6.180;2022-12-07T01:14:21;6.90;99.90
41816;DHT22;27814;53.452;-6.180;2022-12-07T01:16:49;6.90;99.90
41816;DHT22;27814;53.452;-6.180;2022-12-07T01:19:18;6.90;99.90
41816;DHT22;27814;53.452;-6.180;2022-12-07T01:21:46;6.90;99.90
41816;DHT22;27814;53.452;-6.180;2022-12-07T01:24:14;6.90;99.90
41816;DHT22;27814;53.452;-6.180;2022-12-07T01:26:43;6.90;99.90
41816;DHT22;27814;53.452;-6.180;2022-12-07T01:29:13;6.90;99.90
41816;DHT22;27814;53.452;-6.180;2022-12-07T01:31:42;6.90;99.90
41816;DHT22;27814;53.452;-6.180;2022-12-07T01:34:11;6.90;99.90
41816;DHT22;27814;53.452;-6.180;2022-12-07T01:36:39;6.90;99.90
41816;DHT22;27814;53.452;-6.180;2022-12-07T01:39:09;6.90;99.90
41816;DHT22;27814;53.452;-6.180;2022-12-07T01:41:39;6.80;99.90
41816;DHT22;27814;53.452;-6.180;2022-12-07T01:44:21;6.90;99.90
41816;DHT22;27814;53.452;-6.180;2022-12-07T01:46:51;6.90;99.90
41816;DHT22;27814;53.452;-6.180;2022-12-07T01:49:28;6.90;99.90
41816;DHT22;27814;53.452;-6.180;2022-12-07T01:52:03;6.90;99.90
41816;DHT22;27814;53.452;-6.180;2022-12-07T01:54:35;6.90;99.90
41816;DHT22;27814;53.452;-6.180;2022-12-07T01:57:05;6.90;99.90
41816;DHT22;27814;53.452;-6.180;2022-12-07T01:59:36;6.90;99.90
41816;DHT22;27814;53.452;-6.180;2022-12-07T02:02:10;6.90;99.90
41816;DHT22;27814;53.452;-6.180;2022-12-07T02:04:40;6.90;99.90
41816;DHT22;27814;53.452;-6.180;2022-12-07T02:07:09;7.00;99.90
41816;DHT22;27814;53.452;-6.180;2022-12-07T02:09:37;7.00;99.90
41816;DHT22;27814;53.452;-6.180;2022-12-07T02:12:06;7.00;99.90
41816;DHT22;27814;53.452;-6.180;2022-12-07T02:14:36;7.00;99.90
41816;DHT22;27814;53.452;-6.180;2022-12-07T02:17:11;7.00;99.90
41816;DHT22;27814;53.452;-6.180;2022-12-07T02:19:57;6.90;99.90
41816;DHT22;27814;53.452;-6.180;2022-12-07T02:22:54;7.00;99.90
41816;DHT22;27814;53.452;-6.180;2022-12-07T02:25:39;6.90;99.90
41816;DHT22;27814;53.452;-6.180;2022-12-07T02:28:20;6.90;99.90
41816;DHT22;27814;53.452;-6.180;2022-12-07T02:31:01;6.90;99.90
41816;DHT22;27814;53.452;-6.180;2022-12-07T02:33:36;6.90;99.90
41816;DHT22;27814;53.452;-6.180;2022-12-07T02:36:08;6.90;99.90
41816;DHT22;27814;53.452;-6.180;2022-12-07T02:38:43;6.90;99.90
41816;DHT22;27814;53.452;-6.180;2022-12-07T02:41:16;6.90;99.90
41816;DHT22;27814;53.452;-6.180;2022-12-07T02:43:52;6.90;99.90
41816;DHT22;27814;53.452;-6.180;2022-12-07T02:46:27;6.90;99.90
41816;DHT22;27814;53.452;-6.180;2022-12-07T02:48:57;6.90;99.90
41816;DHT22;27814;53.452;-6.180;2022-12-07T02:51:30;6.90;99.90
41816;DHT22;27814;53.452;-6.180;2022-12-07T02:53:59;6.90;99.90
41816;DHT22;27814;53.452;-6.180;2022-12-07T02:56:30;6.90;99.90
41816;DHT22;27814;53.452;-6.180;2022-12-07T02:59:09;6.90;99.90
41816;DHT22;27814;53.452;-6.180;2022-12-07T03:01:49;6.90;99.90
41816;DHT22;27814;53.452;-6.180;2022-12-07T03:04:29;6.90;99.90
41816;DHT22;27814;53.452;-6.180;2022-12-07T03:07:06;6.90;99.90
41816;DHT22;27814;53.452;-6.180;2022-12-07T03:09:40;6.80;99.90
41816;DHT22;27814;53.452;-6.180;2022-12-07T03:12:16;6.70;99.90
41816;DHT22;27814;53.452;-6.180;2022-12-07T03:14:49;6.70;99.90
41816;DHT22;27814;53.452;-6.180;2022-12-07T03:17:24;6.70;99.90
41816;DHT22;27814;53.452;-6.180;2022-12-07T03:19:56;6.80;99.90
41816;DHT22;27814;53.452;-6.180;2022-12-07T03:22:30;6.70;99.90
41816;DHT22;27814;53.452;-6.180;2022-12-07T03:25:04;6.80;99.90
41816;DHT22;27814;53.452;-6.180;2022-12-07T03:27:35;6.80;99.90
41816;DHT22;27814;53.452;-6.180;2022-12-07T03:30:12;6.80;99.90
41816;DHT22;27814;53.452;-6.180;2022-12-07T03:32:46;6.80;99.90
41816;DHT22;27814;53.452;-6.180;2022-12-07T03:35:19;6.80;99.90
41816;DHT22;27814;53.452;-6.180;2022-12-07T03:37:54;6.80;99.90
41816;DHT22;27814;53.452;-6.180;2022-12-07T03:40:28;6.70;99.90
41816;DHT22;27814;53.452;-6.180;2022-12-07T03:42:59;6.70;99.90
41816;DHT22;27814;53.452;-6.180;2022-12-07T03:45:34;6.70;99.90
41816;DHT22;27814;53.452;-6.180;2022-12-07T03:48:13;6.70;99.90
41816;DHT22;27814;53.452;-6.180;2022-12-07T03:50:47;6.70;99.90
41816;DHT22;27814;53.452;-6.180;2022-12-07T03:53:20;6.70;99.90
41816;DHT22;27814;53.452;-6.180;2022-12-07T03:55:49;6.60;99.90
41816;DHT22;27814;53.452;-6.180;2022-12-07T03:58:21;6.60;99.90
41816;DHT22;27814;53.452;-6.180;2022-12-07T04:00:50;6.60;99.90
41816;DHT22;27814;53.452;-6.180;2022-12-07T04:03:21;6.60;99.90
41816;DHT22;27814;53.452;-6.180;2022-12-07T04:05:49;6.60;99.90
41816;DHT22;27814;53.452;-6.180;2022-12-07T04:08:18;6.60;99.90
41816;DHT22;27814;53.452;-6.180;2022-12-07T04:10:47;6.50;99.90
41816;DHT22;27814;53.452;-6.180;2022-12-07T04:13:15;6.60;99.90
41816;DHT22;27814;53.452;-6.180;2022-12-07T04:15:45;6.50;99.90
41816;DHT22;27814;53.452;-6.180;2022-12-07T04:18:14;6.50;99.90
41816;DHT22;27814;53.452;-6.180;2022-12-07T04:20:43;6.50;99.90
41816;DHT22;27814;53.452;-6.180;2022-12-07T04:23:13;6.50;99.90
41816;DHT22;27814;53.452;-6.180;2022-12-07T04:25:42;6.50;99.90
41816;DHT22;27814;53.452;-6.180;2022-12-07T04:28:10;6.40;99.90
41816;DHT22;27814;53.452;-6.180;2022-12-07T04:30:39;6.40;99.90
41816;DHT22;27814;53.452;-6.180;2022-12-07T04:33:08;6.40;99.90
41816;DHT22;27814;53.452;-6.180;2022-12-07T04:35:36;6.40;99.90
41816;DHT22;27814;53.452;-6.180;2022-12-07T04:38:08;6.40;99.90
41816;DHT22;27814;53.452;-6.180;2022-12-07T04:40:37;6.40;99.90
41816;DHT22;27814;53.452;-6.180;2022-12-07T04:43:05;6.40;99.90
41816;DHT22;27814;53.452;-6.180;2022-12-07T04:45:34;6.30;99.90
41816;DHT22;27814;53.452;-6.180;2022-12-07T04:48:04;6.30;99.90
41816;DHT22;27814;53.452;-6.180;2022-12-07T04:50:33;6.30;99.90
41816;DHT22;27814;53.452;-6.180;2022-12-07T04:53:15;6.30;99.90
41816;DHT22;27814;53.452;-6.180;2022-12-07T04:55:44;6.30;99.90
41816;DHT22;27814;53.452;-6.180;2022-12-07T04:58:13;6.30;99.90
41816;DHT22;27814;53.452;-6.180;2022-12-07T05:00:42;6.30;99.90
41816;DHT22;27814;53.452;-6.180;2022-12-07T05:03:25;6.20;99.90
41816;DHT22;27814;53.452;-6.180;2022-12-07T05:05:54;6.30;99.90
41816;DHT22;27814;53.452;-6.180;2022-12-07T05:08:24;6.30;99.90
41816;DHT22;27814;53.452;-6.180;2022-12-07T05:10:53;6.20;99.90
41816;DHT22;27814;53.452;-6.180;2022-12-07T05:13:24;6.20;99.90
41816;DHT22;27814;53.452;-6.180;2022-12-07T05:15:52;6.20;99.90
41816;DHT22;27814;53.452;-6.180;2022-12-07T05:18:22;6.30;99.90
41816;DHT22;27814;53.452;-6.180;2022-12-07T05:20:51;6.20;99.90
41816;DHT22;27814;53.452;-6.180;2022-12-07T05:23:20;6.20;99.90
41816;DHT22;27814;53.452;-6.180;2022-12-07T05:25:50;6.20;99.90
41816;DHT22;27814;53.452;-6.180;2022-12-07T05:28:19;6.20;99.90
41816;DHT22;27814;53.452;-6.180;2022-12-07T05:30:47;6.20;99.90
41816;DHT22;27814;53.452;-6.180;2022-12-07T05:33:22;6.20;99.90
41816;DHT22;27814;53.452;-6.180;2022-12-07T05:35:51;6.20;99.90
41816;DHT22;27814;53.452;-6.180;2022-12-07T05:38:21;6.20;99.90
41816;DHT22;27814;53.452;-6.180;2022-12-07T05:40:53;6.20;99.90
41816;DHT22;27814;53.452;-6.180;2022-12-07T05:43:23;6.20;99.90
41816;DHT22;27814;53.452;-6.180;2022-12-07T05:45:52;6.20;99.90
41816;DHT22;27814;53.452;-6.180;2022-12-07T05:48:20;6.20;99.90
41816;DHT22;27814;53.452;-6.180;2022-12-07T05:50:49;6.30;99.90
41816;DHT22;27814;53.452;-6.180;2022-12-07T05:53:18;6.30;99.90
41816;DHT22;27814;53.452;-6.180;2022-12-07T05:55:52;6.30;99.90
41816;DHT22;27814;53.452;-6.180;2022-12-07T05:58:20;6.30;99.90
41816;DHT22;27814;53.452;-6.180;2022-12-07T06:01:07;6.30;99.90
41816;DHT22;27814;53.452;-6.180;2022-12-07T06:03:37;6.30;99.90
41816;DHT22;27814;53.452;-6.180;2022-12-07T06:06:06;6.30;99.90
41816;DHT22;27814;53.452;-6.180;2022-12-07T06:08:34;6.30;99.90
41816;DHT22;27814;53.452;-6.180;2022-12-07T06:11:04;6.30;99.90
41816;DHT22;27814;53.452;-6.180;2022-12-07T06:13:51;6.30;99.90
41816;DHT22;27814;53.452;-6.180;2022-12-07T06:16:19;6.40;99.90
41816;DHT22;27814;53.452;-6.180;2022-12-07T06:18:48;6.40;99.90
41816;DHT22;27814;53.452;-6.180;2022-12-07T06:21:17;6.40;99.90
41816;DHT22;27814;53.452;-6.180;2022-12-07T06:23:46;6.30;99.90
41816;DHT22;27814;53.452;-6.180;2022-12-07T06:26:17;6.30;99.90
41816;DHT22;27814;53.452;-6.180;2022-12-07T06:28:48;6.30;99.90
41816;DHT22;27814;53.452;-6.180;2022-12-07T06:31:17;6.30;99.90
41816;DHT22;27814;53.452;-6.180;2022-12-07T06:33:47;6.30;99.90
41816;DHT22;27814;53.452;-6.180;2022-12-07T06:36:15;6.20;99.90
41816;DHT22;27814;53.452;-6.180;2022-12-07T06:38:51;6.20;99.90
41816;DHT22;27814;53.452;-6.180;2022-12-07T06:41:22;6.20;99.90
41816;DHT22;27814;53.452;-6.180;2022-12-07T06:43:51;6.10;99.90
41816;DHT22;27814;53.452;-6.180;2022-12-07T06:46:25;6.10;99.90
41816;DHT22;27814;53.452;-6.180;2022-12-07T06:48:54;6.10;99.90
41816;DHT22;27814;53.452;-6.180;2022-12-07T06:51:22;6.10;99.90
41816;DHT22;27814;53.452;-6.180;2022-12-07T06:53:51;6.10;99.90
41816;DHT22;27814;53.452;-6.180;2022-12-07T06:56:21;6.10;99.90
41816;DHT22;27814;53.452;-6.180;2022-12-07T06:58:50;6.10;99.90
41816;DHT22;27814;53.452;-6.180;2022-12-07T07:01:18;6.10;99.90
41816;DHT22;27814;53.452;-6.180;2022-12-07T07:03:47;6.10;99.90
41816;DHT22;27814;53.452;-6.180;2022-12-07T07:06:16;6.10;99.90
41816;DHT22;27814;53.452;-6.180;2022-12-07T07:08:45;6.10;99.90
41816;DHT22;27814;53.452;-6.180;2022-12-07T07:11:14;6.10;99.90
41816;DHT22;27814;53.452;-6.180;2022-12-07T07:13:44;6.10;99.90
41816;DHT22;27814;53.452;-6.180;2022-12-07T07:16:13;6.10;99.90
41816;DHT22;27814;53.452;-6.180;2022-12-07T07:18:41;6.10;99.90
41816;DHT22;27814;53.452;-6.180;2022-12-07T07:21:10;6.10;99.90
41816;DHT22;27814;53.452;-6.180;2022-12-07T07:23:39;6.10;99.90
41816;DHT22;27814;53.452;-6.180;2022-12-07T07:26:08;6.10;99.90
41816;DHT22;27814;53.452;-6.180;2022-12-07T07:28:37;6.10;99.90
41816;DHT22;27814;53.452;-6.180;2022-12-07T07:31:08;6.10;99.90
41816;DHT22;27814;53.452;-6.180;2022-12-07T07:33:36;6.10;99.90
41816;DHT22;27814;53.452;-6.180;2022-12-07T07:36:06;6.10;99.90
41816;DHT22;27814;53.452;-6.180;2022-12-07T07:38:35;6.10;99.90
41816;DHT22;27814;53.452;-6.180;2022-12-07T07:41:04;6.00;99.90
41816;DHT22;27814;53.452;-6.180;2022-12-07T07:43:33;6.00;99.90
41816;DHT22;27814;53.452;-6.180;2022-12-07T07:46:01;6.00;99.90
41816;DHT22;27814;53.452;-6.180;2022-12-07T07:48:32;6.00;99.90
41816;DHT22;27814;53.452;-6.180;2022-12-07T07:51:00;6.00;99.90
41816;DHT22;27814;53.452;-6.180;2022-12-07T07:53:28;5.90;99.90
41816;DHT22;27814;53.452;-6.180;2022-12-07T07:56:00;5.90;99.90
41816;DHT22;27814;53.452;-6.180;2022-12-07T07:58:29;5.90;99.90
41816;DHT22;27814;53.452;-6.180;2022-12-07T08:01:02;5.90;99.90
41816;DHT22;27814;53.452;-6.180;2022-12-07T08:03:35;5.80;99.90
41816;DHT22;27814;53.452;-6.180;2022-12-07T08:06:06;5.80;99.90
41816;DHT22;27814;53.452;-6.180;2022-12-07T08:08:40;5.80;99.90
41816;DHT22;27814;53.452;-6.180;2022-12-07T08:11:09;5.80;99.90
41816;DHT22;27814;53.452;-6.180;2022-12-07T08:13:39;5.80;99.90
41816;DHT22;27814;53.452;-6.180;2022-12-07T08:16:09;5.80;99.90
41816;DHT22;27814;53.452;-6.180;2022-12-07T08:18:43;5.70;99.90
41816;DHT22;27814;53.452;-6.180;2022-12-07T08:21:13;5.60;99.90
41816;DHT22;27814;53.452;-6.180;2022-12-07T08:23:42;5.60;99.90
41816;DHT22;27814;53.452;-6.180;2022-12-07T08:26:13;5.60;99.90
41816;DHT22;27814;53.452;-6.180;2022-12-07T08:28:42;5.50;99.90
41816;DHT22;27814;53.452;-6.180;2022-12-07T08:31:13;5.50;99.90
41816;DHT22;27814;53.452;-6.180;2022-12-07T08:33:44;5.50;99.90
41816;DHT22;27814;53.452;-6.180;2022-12-07T08:36:14;5.50;99.90
41816;DHT22;27814;53.452;-6.180;2022-12-07T08:38:45;5.50;99.90
41816;DHT22;27814;53.452;-6.180;2022-12-07T08:41:34;5.50;99.90
41816;DHT22;27814;53.452;-6.180;2022-12-07T08:44:03;5.50;99.90
41816;DHT22;27814;53.452;-6.180;2022-12-07T08:46:35;5.50;99.90
41816;DHT22;27814;53.452;-6.180;2022-12-07T08:49:12;5.50;99.90
41816;DHT22;27814;53.452;-6.180;2022-12-07T08:51:41;5.50;99.90
41816;DHT22;27814;53.452;-6.180;2022-12-07T08:54:12;5.50;99.90
41816;DHT22;27814;53.452;-6.180;2022-12-07T08:56:42;5.50;99.90
41816;DHT22;27814;53.452;-6.180;2022-12-07T08:59:14;5.50;99.90
41816;DHT22;27814;53.452;-6.180;2022-12-07T09:01:43;5.50;99.90
41816;DHT22;27814;53.452;-6.180;2022-12-07T09:04:13;5.50;99.90
41816;DHT22;27814;53.452;-6.180;2022-12-07T09:06:42;5.50;99.90
41816;DHT22;27814;53.452;-6.180;2022-12-07T09:09:17;5.60;99.90
41816;DHT22;27814;53.452;-6.180;2022-12-07T09:11:45;5.60;99.90
41816;DHT22;27814;53.452;-6.180;2022-12-07T09:14:15;5.60;99.90
41816;DHT22;27814;53.452;-6.180;2022-12-07T09:16:44;5.60;99.90
41816;DHT22;27814;53.452;-6.180;2022-12-07T09:19:14;5.70;99.90
41816;DHT22;27814;53.452;-6.180;2022-12-07T09:21:44;5.70;99.90
41816;DHT22;27814;53.452;-6.180;2022-12-07T09:24:13;5.70;99.90
41816;DHT22;27814;53.452;-6.180;2022-12-07T09:26:41;5.80;99.90
41816;DHT22;27814;53.452;-6.180;2022-12-07T09:29:11;5.70;99.90
41816;DHT22;27814;53.452;-6.180;2022-12-07T09:31:40;5.70;99.90
41816;DHT22;27814;53.452;-6.180;2022-12-07T09:34:09;5.80;99.90
41816;DHT22;27814;53.452;-6.180;2022-12-07T09:36:39;5.80;99.90
41816;DHT22;27814;53.452;-6.180;2022-12-07T09:39:10;5.80;99.90
41816;DHT22;27814;53.452;-6.180;2022-12-07T09:41:39;5.80;99.90
41816;DHT22;27814;53.452;-6.180;2022-12-07T09:44:14;5.90;99.90
41816;DHT22;27814;53.452;-6.180;2022-12-07T09:46:46;5.90;99.90
41816;DHT22;27814;53.452;-6.180;2022-12-07T09:49:18;5.90;99.90
41816;DHT22;27814;53.452;-6.180;2022-12-07T09:52:03;5.90;99.90
41816;DHT22;27814;53.452;-6.180;2022-12-07T09:54:35;6.00;99.90
41816;DHT22;27814;53.452;-6.180;2022-12-07T09:57:04;5.90;99.90
41816;DHT22;27814;53.452;-6.180;2022-12-07T09:59:33;5.90;99.90
41816;DHT22;27814;53.452;-6.180;2022-12-07T10:02:28;5.90;99.90
41816;DHT22;27814;53.452;-6.180;2022-12-07T10:05:11;5.90;99.90
41816;DHT22;27814;53.452;-6.180;2022-12-07T10:07:52;5.90;99.90
41816;DHT22;27814;53.452;-6.180;2022-12-07T10:10:24;5.90;99.90
41816;DHT22;27814;53.452;-6.180;2022-12-07T10:13:00;5.90;99.90
41816;DHT22;27814;53.452;-6.180;2022-12-07T10:15:44;5.90;99.90
41816;DHT22;27814;53.452;-6.180;2022-12-07T10:18:34;5.90;99.90
41816;DHT22;27814;53.452;-6.180;2022-12-07T10:21:12;5.80;99.90
41816;DHT22;27814;53.452;-6.180;2022-12-07T10:24:01;5.80;99.90
41816;DHT22;27814;53.452;-6.180;2022-12-07T10:26:32;5.80;99.90
41816;DHT22;27814;53.452;-6.180;2022-12-07T10:31:52;5.90;99.90
41816;DHT22;27814;53.452;-6.180;2022-12-07T10:34:24;5.90;99.90
41816;DHT22;27814;53.452;-6.180;2022-12-07T10:36:55;6.00;99.90
41816;DHT22;27814;53.452;-6.180;2022-12-07T10:39:42;6.00;99.90
41816;DHT22;27814;53.452;-6.180;2022-12-07T10:42:19;6.10;99.90
41816;DHT22;27814;53.452;-6.180;2022-12-07T10:44:49;6.10;99.90
41816;DHT22;27814;53.452;-6.180;2022-12-07T10:47:27;6.20;99.90
41816;DHT22;27814;53.452;-6.180;2022-12-07T10:50:17;6.20;99.90
41816;DHT22;27814;53.452;-6.180;2022-12-07T10:53:17;6.30;99.90
41816;DHT22;27814;53.452;-6.180;2022-12-07T10:56:20;6.30;99.90
41816;DHT22;27814;53.452;-6.180;2022-12-07T10:59:00;6.30;99.90
41816;DHT22;27814;53.452;-6.180;2022-12-07T11:01:36;6.40;99.90
41816;DHT22;27814;53.452;-6.180;2022-12-07T11:04:22;6.40;99.90
41816;DHT22;27814;53.452;-6.180;2022-12-07T11:06:59;6.50;99.90
41816;DHT22;27814;53.452;-6.180;2022-12-07T11:09:51;6.50;99.90
41816;DHT22;27814;53.452;-6.180;2022-12-07T11:12:47;6.60;99.90
41816;DHT22;27814;53.452;-6.180;2022-12-07T11:15:22;6.60;99.90
41816;DHT22;27814;53.452;-6.180;2022-12-07T11:17:58;6.60;99.90
41816;DHT22;27814;53.452;-6.180;2022-12-07T11:20:43;6.70;99.90
41816;DHT22;27814;53.452;-6.180;2022-12-07T11:23:21;6.70;99.90
41816;DHT22;27814;53.452;-6.180;2022-12-07T11:26:02;6.70;99.90
41816;DHT22;27814;53.452;-6.180;2022-12-07T11:28:49;6.70;99.90
41816;DHT22;27814;53.452;-6.180;2022-12-07T11:31:32;6.80;99.90
41816;DHT22;27814;53.452;-6.180;2022-12-07T11:34:12;6.80;99.90
41816;DHT22;27814;53.452;-6.180;2022-12-07T11:36:47;6.80;99.90
41816;DHT22;27814;53.452;-6.180;2022-12-07T11:39:25;6.80;99.90
41816;DHT22;27814;53.452;-6.180;2022-12-07T11:42:00;6.90;99.90
41816;DHT22;27814;53.452;-6.180;2022-12-07T11:44:46;6.90;99.90
41816;DHT22;27814;53.452;-6.180;2022-12-07T11:47:22;6.90;99.90
41816;DHT22;27814;53.452;-6.180;2022-12-07T11:49:56;7.00;99.90
41816;DHT22;27814;53.452;-6.180;2022-12-07T11:52:30;7.00;99.90
41816;DHT22;27814;53.452;-6.180;2022-12-07T11:55:00;7.00;99.90
41816;DHT22;27814;53.452;-6.180;2022-12-07T11:57:35;7.00;99.90
41816;DHT22;27814;53.452;-6.180;2022-12-07T12:00:15;7.00;99.90
41816;DHT22;27814;53.452;-6.180;2022-12-07T12:02:48;7.00;99.90
41816;DHT22;27814;53.452;-6.180;2022-12-07T12:05:21;7.10;99.90
41816;DHT22;27814;53.452;-6.180;2022-12-07T12:07:59;7.10;99.90
41816;DHT22;27814;53.452;-6.180;2022-12-07T12:10:55;7.10;99.90
41816;DHT22;27814;53.452;-6.180;2022-12-07T12:13:59;7.10;99.90
41816;DHT22;27814;53.452;-6.180;2022-12-07T12:17:18;7.10;99.90
41816;DHT22;27814;53.452;-6.180;2022-12-07T12:20:00;7.10;99.90
41816;DHT22;27814;53.452;-6.180;2022-12-07T12:22:34;7.20;99.90
41816;DHT22;27814;53.452;-6.180;2022-12-07T12:25:06;7.20;99.90
41816;DHT22;27814;53.452;-6.180;2022-12-07T12:27:38;7.20;99.90
41816;DHT22;27814;53.452;-6.180;2022-12-07T12:30:30;7.20;99.90
41816;DHT22;27814;53.452;-6.180;2022-12-07T12:33:06;7.20;99.90
41816;DHT22;27814;53.452;-6.180;2022-12-07T12:38:33;7.20;99.90
41816;DHT22;27814;53.452;-6.180;2022-12-07T12:41:02;7.20;99.90
41816;DHT22;27814;53.452;-6.180;2022-12-07T12:43:49;7.20;99.90
41816;DHT22;27814;53.452;-6.180;2022-12-07T12:46:50;7.20;99.90
41816;DHT22;27814;53.452;-6.180;2022-12-07T12:49:36;7.20;99.90
41816;DHT22;27814;53.452;-6.180;2022-12-07T12:58:29;7.20;99.90
41816;DHT22;27814;53.452;-6.180;2022-12-07T13:07:52;7.30;99.90
41816;DHT22;27814;53.452;-6.180;2022-12-07T13:10:34;7.20;99.90
41816;DHT22;27814;53.452;-6.180;2022-12-07T13:13:28;7.30;99.90
41816;DHT22;27814;53.452;-6.180;2022-12-07T13:18:59;7.30;99.90
41816;DHT22;27814;53.452;-6.180;2022-12-07T13:21:43;7.30;99.90
41816;DHT22;27814;53.452;-6.180;2022-12-07T13:24:16;7.30;99.90
41816;DHT22;27814;53.452;-6.180;2022-12-07T13:26:46;7.30;99.90
41816;DHT22;27814;53.452;-6.180;2022-12-07T13:29:16;7.30;99.90
41816;DHT22;27814;53.452;-6.180;2022-12-07T13:31:47;7.30;99.90
41816;DHT22;27814;53.452;-6.180;2022-12-07T13:34:31;7.30;99.90
41816;DHT22;27814;53.452;-6.180;2022-12-07T13:37:01;7.30;99.90
41816;DHT22;27814;53.452;-6.180;2022-12-07T13:39:45;7.30;99.90
41816;DHT22;27814;53.452;-6.180;2022-12-07T13:42:24;7.30;99.90
41816;DHT22;27814;53.452;-6.180;2022-12-07T13:44:53;7.30;99.90
41816;DHT22;27814;53.452;-6.180;2022-12-07T13:47:34;7.30;99.90
41816;DHT22;27814;53.452;-6.180;2022-12-07T13:50:23;7.40;99.90
41816;DHT22;27814;53.452;-6.180;2022-12-07T13:52:56;7.40;99.90
41816;DHT22;27814;53.452;-6.180;2022-12-07T13:55:27;7.40;99.90
41816;DHT22;27814;53.452;-6.180;2022-12-07T13:57:56;7.50;99.90
41816;DHT22;27814;53.452;-6.180;2022-12-07T14:00:26;7.50;99.90
41816;DHT22;27814;53.452;-6.180;2022-12-07T14:02:57;7.50;99.90
41816;DHT22;27814;53.452;-6.180;2022-12-07T14:05:29;7.50;99.90
41816;DHT22;27814;53.452;-6.180;2022-12-07T14:08:00;7.50;99.90
41816;DHT22;27814;53.452;-6.180;2022-12-07T14:10:31;7.60;99.90
41816;DHT22;27814;53.452;-6.180;2022-12-07T14:13:03;7.60;99.90
41816;DHT22;27814;53.452;-6.180;2022-12-07T14:15:54;7.60;99.90
41816;DHT22;27814;53.452;-6.180;2022-12-07T14:18:28;7.60;99.90
41816;DHT22;27814;53.452;-6.180;2022-12-07T14:21:04;7.60;99.90
41816;DHT22;27814;53.452;-6.180;2022-12-07T14:23:32;7.60;99.90
41816;DHT22;27814;53.452;-6.180;2022-12-07T14:26:08;7.70;99.90
41816;DHT22;27814;53.452;-6.180;2022-12-07T14:28:41;7.70;99.90
41816;DHT22;27814;53.452;-6.180;2022-12-07T14:31:11;7.70;99.90
41816;DHT22;27814;53.452;-6.180;2022-12-07T14:33:51;7.70;99.90
41816;DHT22;27814;53.452;-6.180;2022-12-07T14:36:19;7.70;99.90
41816;DHT22;27814;53.452;-6.180;2022-12-07T14:38:48;7.70;99.90
41816;DHT22;27814;53.452;-6.180;2022-12-07T14:41:20;7.70;99.90
41816;DHT22;27814;53.452;-6.180;2022-12-07T14:44:10;7.80;99.90
41816;DHT22;27814;53.452;-6.180;2022-12-07T14:47:00;7.80;99.90
41816;DHT22;27814;53.452;-6.180;2022-12-07T14:49:49;7.80;99.90
41816;DHT22;27814;53.452;-6.180;2022-12-07T14:52:21;7.90;99.90
41816;DHT22;27814;53.452;-6.180;2022-12-07T14:55:14;7.90;99.90
41816;DHT22;27814;53.452;-6.180;2022-12-07T14:57:49;7.90;99.90
41816;DHT22;27814;53.452;-6.180;2022-12-07T15:00:19;7.90;99.90
41816;DHT22;27814;53.452;-6.180;2022-12-07T15:02:48;7.90;99.90
41816;DHT22;27814;53.452;-6.180;2022-12-07T15:05:18;7.90;99.90
41816;DHT22;27814;53.452;-6.180;2022-12-07T15:07:49;7.90;99.90
41816;DHT22;27814;53.452;-6.180;2022-12-07T15:10:20;7.90;99.90
41816;DHT22;27814;53.452;-6.180;2022-12-07T15:12:52;7.80;99.90
41816;DHT22;27814;53.452;-6.180;2022-12-07T15:15:20;7.80;99.90
41816;DHT22;27814;53.452;-6.180;2022-12-07T15:17:52;7.80;99.90
41816;DHT22;27814;53.452;-6.180;2022-12-07T15:20:21;7.80;99.90
41816;DHT22;27814;53.452;-6.180;2022-12-07T15:22:49;7.80;99.90
41816;DHT22;27814;53.452;-6.180;2022-12-07T15:25:18;7.70;99.90
41816;DHT22;27814;53.452;-6.180;2022-12-07T15:27:47;7.70;99.90
41816;DHT22;27814;53.452;-6.180;2022-12-07T15:30:17;7.60;99.90
41816;DHT22;27814;53.452;-6.180;2022-12-07T15:32:49;7.60;99.90
41816;DHT22;27814;53.452;-6.180;2022-12-07T15:35:19;7.50;99.90
41816;DHT22;27814;53.452;-6.180;2022-12-07T15:37:48;7.50;99.90
41816;DHT22;27814;53.452;-6.180;2022-12-07T15:40:16;7.50;99.90
41816;DHT22;27814;53.452;-6.180;2022-12-07T15:42:45;7.50;99.90
41816;DHT22;27814;53.452;-6.180;2022-12-07T15:45:13;7.40;99.90
41816;DHT22;27814;53.452;-6.180;2022-12-07T15:47:49;7.40;99.90
41816;DHT22;27814;53.452;-6.180;2022-12-07T15:50:38;7.30;99.90
41816;DHT22;27814;53.452;-6.180;2022-12-07T15:53:08;7.30;99.90
41816;DHT22;27814;53.452;-6.180;2022-12-07T15:55:38;7.10;99.90
41816;DHT22;27814;53.452;-6.180;2022-12-07T15:58:07;7.10;99.90
41816;DHT22;27814;53.452;-6.180;2022-12-07T16:00:35;7.00;99.90
41816;DHT22;27814;53.452;-6.180;2022-12-07T16:03:05;7.00;99.90
41816;DHT22;27814;53.452;-6.180;2022-12-07T16:05:34;7.00;99.90
41816;DHT22;27814;53.452;-6.180;2022-12-07T16:08:02;6.90;99.90
41816;DHT22;27814;53.452;-6.180;2022-12-07T16:10:32;6.90;99.90
41816;DHT22;27814;53.452;-6.180;2022-12-07T16:13:01;6.80;99.90
41816;DHT22;27814;53.452;-6.180;2022-12-07T16:15:30;6.70;99.90
41816;DHT22;27814;53.452;-6.180;2022-12-07T16:18:00;6.70;99.90
41816;DHT22;27814;53.452;-6.180;2022-12-07T16:20:31;6.60;99.90
41816;DHT22;27814;53.452;-6.180;2022-12-07T16:22:59;6.60;99.90
41816;DHT22;27814;53.452;-6.180;2022-12-07T16:25:28;6.50;99.90
41816;DHT22;27814;53.452;-6.180;2022-12-07T16:27:57;6.50;99.90
41816;DHT22;27814;53.452;-6.180;2022-12-07T16:30:25;6.50;99.90